sensor_id;sensor_type;location;lat;lon;timestamp;temperature;humidity
15217;DHT22;7711;46.634;14.318;2023-04-26T00:00:50;4.70;99.90
15217;DHT22;7711;46.634;14.318;2023-04-26T00:03:18;4.60;99.90
15217;DHT22;7711;46.634;14.318;2023-04-26T00:05:44;4.50;99.90
15217;DHT22;7711;46.634;14.318;2023-04-26T00:08:12;4.40;99.90
15217;DHT22;7711;46.634;14.318;2023-04-26T00:10:39;4.40;99.90
15217;DHT22;7711;46.634;14.318;2023-04-26T00:13:06;4.40;99.90
15217;DHT22;7711;46.634;14.318;2023-04-26T00:15:34;4.40;99.90
15217;DHT22;7711;46.634;14.318;2023-04-26T00:18:01;4.30;99.90
15217;DHT22;7711;46.634;14.318;2023-04-26T00:20:28;4.30;99.90
15217;DHT22;7711;46.634;14.318;2023-04-26T00:22:55;4.30;99.90
15217;DHT22;7711;46.634;14.318;2023-04-26T00:25:22;4.20;99.90
15217;DHT22;7711;46.634;14.318;2023-04-26T00:27:49;4.10;99.90
15217;DHT22;7711;46.634;14.318;2023-04-26T00:30:17;4.10;99.90
15217;DHT22;7711;46.634;14.318;2023-04-26T00:32:46;4.10;99.90
15217;DHT22;7711;46.634;14.318;2023-04-26T00:35:13;4.00;99.90
15217;DHT22;7711;46.634;14.318;2023-04-26T00:37:40;3.80;99.90
15217;DHT22;7711;46.634;14.318;2023-04-26T00:40:08;3.80;99.90
15217;DHT22;7711;46.634;14.318;2023-04-26T00:42:36;3.80;99.90
15217;DHT22;7711;46.634;14.318;2023-04-26T00:45:04;3.80;1.00
15217;DHT22;7711;46.634;14.318;2023-04-26T00:47:32;3.80;99.90
15217;DHT22;7711;46.634;14.318;2023-04-26T00:50:00;3.70;1.00
15217;DHT22;7711;46.634;14.318;2023-04-26T00:52:28;3.80;1.00
15217;DHT22;7711;46.634;14.318;2023-04-26T00:54:56;3.80;1.00
15217;DHT22;7711;46.634;14.318;2023-04-26T00:57:23;3.80;99.90
15217;DHT22;7711;46.634;14.318;2023-04-26T00:59:50;3.70;1.00
15217;DHT22;7711;46.634;14.318;2023-04-26T01:02:17;3.80;1.00
15217;DHT22;7711;46.634;14.318;2023-04-26T01:04:44;3.80;1.00
15217;DHT22;7711;46.634;14.318;2023-04-26T01:07:14;3.80;1.00
15217;DHT22;7711;46.634;14.318;2023-04-26T01:09:41;3.80;1.00
15217;DHT22;7711;46.634;14.318;2023-04-26T01:12:10;3.90;99.90
15217;DHT22;7711;46.634;14.318;2023-04-26T01:14:38;4.00;99.90
15217;DHT22;7711;46.634;14.318;2023-04-26T01:17:05;4.00;99.90
15217;DHT22;7711;46.634;14.318;2023-04-26T01:19:32;4.00;99.90
15217;DHT22;7711;46.634;14.318;2023-04-26T01:22:01;4.00;99.90
15217;DHT22;7711;46.634;14.318;2023-04-26T01:24:30;4.10;99.90
15217;DHT22;7711;46.634;14.318;2023-04-26T01:26:58;4.10;99.90
15217;DHT22;7711;46.634;14.318;2023-04-26T01:29:26;4.20;99.90
15217;DHT22;7711;46.634;14.318;2023-04-26T01:31:53;4.10;99.90
15217;DHT22;7711;46.634;14.318;2023-04-26T01:34:20;4.10;99.90
15217;DHT22;7711;46.634;14.318;2023-04-26T01:36:47;3.90;99.90
15217;DHT22;7711;46.634;14.318;2023-04-26T01:39:14;4.00;99.90
15217;DHT22;7711;46.634;14.318;2023-04-26T01:41:43;3.90;99.90
15217;DHT22;7711;46.634;14.318;2023-04-26T01:44:09;3.80;99.90
15217;DHT22;7711;46.634;14.318;2023-04-26T01:46:36;3.80;99.90
15217;DHT22;7711;46.634;14.318;2023-04-26T01:49:04;3.80;99.90
15217;DHT22;7711;46.634;14.318;2023-04-26T01:51:31;3.80;99.90
15217;DHT22;7711;46.634;14.318;2023-04-26T01:53:58;3.80;99.90
15217;DHT22;7711;46.634;14.318;2023-04-26T01:56:25;3.80;99.90
15217;DHT22;7711;46.634;14.318;2023-04-26T02:15:16;3.50;99.90
15217;DHT22;7711;46.634;14.318;2023-04-26T02:17:44;3.50;99.90
15217;DHT22;7711;46.634;14.318;2023-04-26T02:20:11;3.50;99.90
15217;DHT22;7711;46.634;14.318;2023-04-26T02:22:38;3.40;99.90
15217;DHT22;7711;46.634;14.318;2023-04-26T02:25:06;3.30;99.90
15217;DHT22;7711;46.634;14.318;2023-04-26T02:27:34;3.30;99.90
15217;DHT22;7711;46.634;14.318;2023-04-26T02:30:01;3.30;99.90
15217;DHT22;7711;46.634;14.318;2023-04-26T02:32:30;3.30;99.90
15217;DHT22;7711;46.634;14.318;2023-04-26T02:34:57;3.20;99.90
15217;DHT22;7711;46.634;14.318;2023-04-26T02:37:24;3.10;1.00
15217;DHT22;7711;46.634;14.318;2023-04-26T02:39:51;3.10;1.00
15217;DHT22;7711;46.634;14.318;2023-04-26T02:42:18;3.00;1.00
15217;DHT22;7711;46.634;14.318;2023-04-26T02:44:45;3.10;1.00
15217;DHT22;7711;46.634;14.318;2023-04-26T02:47:12;3.00;1.00
15217;DHT22;7711;46.634;14.318;2023-04-26T02:49:41;3.00;1.00
15217;DHT22;7711;46.634;14.318;2023-04-26T02:52:08;3.10;1.00
15217;DHT22;7711;46.634;14.318;2023-04-26T02:54:35;3.10;1.00
15217;DHT22;7711;46.634;14.318;2023-04-26T02:57:02;3.10;1.00
15217;DHT22;7711;46.634;14.318;2023-04-26T02:59:29;3.00;1.00
15217;DHT22;7711;46.634;14.318;2023-04-26T03:01:56;3.00;1.00
15217;DHT22;7711;46.634;14.318;2023-04-26T03:04:23;3.00;1.00
15217;DHT22;7711;46.634;14.318;2023-04-26T03:06:51;2.90;1.00
15217;DHT22;7711;46.634;14.318;2023-04-26T03:09:18;2.80;1.00
15217;DHT22;7711;46.634;14.318;2023-04-26T03:11:45;2.70;1.00
15217;DHT22;7711;46.634;14.318;2023-04-26T03:14:13;2.70;1.00
15217;DHT22;7711;46.634;14.318;2023-04-26T03:16:40;2.60;1.00
15217;DHT22;7711;46.634;14.318;2023-04-26T03:19:08;2.60;1.00
15217;DHT22;7711;46.634;14.318;2023-04-26T03:21:35;2.70;1.00
15217;DHT22;7711;46.634;14.318;2023-04-26T03:24:03;2.80;1.00
15217;DHT22;7711;46.634;14.318;2023-04-26T03:26:31;2.80;1.00
15217;DHT22;7711;46.634;14.318;2023-04-26T03:28:58;2.80;1.00
15217;DHT22;7711;46.634;14.318;2023-04-26T03:31:25;2.80;1.00
15217;DHT22;7711;46.634;14.318;2023-04-26T03:33:52;2.80;1.00
15217;DHT22;7711;46.634;14.318;2023-04-26T03:36:19;2.90;1.00
15217;DHT22;7711;46.634;14.318;2023-04-26T03:38:45;2.80;1.00
15217;DHT22;7711;46.634;14.318;2023-04-26T03:41:14;2.80;1.00
15217;DHT22;7711;46.634;14.318;2023-04-26T03:43:41;2.70;1.00
15217;DHT22;7711;46.634;14.318;2023-04-26T03:46:08;2.80;1.00
15217;DHT22;7711;46.634;14.318;2023-04-26T03:48:35;2.80;1.00
15217;DHT22;7711;46.634;14.318;2023-04-26T03:51:02;2.70;1.00
15217;DHT22;7711;46.634;14.318;2023-04-26T03:53:29;2.70;1.00
15217;DHT22;7711;46.634;14.318;2023-04-26T03:55:55;2.80;1.00
15217;DHT22;7711;46.634;14.318;2023-04-26T03:58:24;2.70;1.00
15217;DHT22;7711;46.634;14.318;2023-04-26T04:00:51;2.70;1.00
15217;DHT22;7711;46.634;14.318;2023-04-26T04:03:18;2.70;1.00
15217;DHT22;7711;46.634;14.318;2023-04-26T04:05:46;2.70;1.00
15217;DHT22;7711;46.634;14.318;2023-04-26T04:08:13;2.60;1.00
15217;DHT22;7711;46.634;14.318;2023-04-26T04:10:40;2.60;1.00
15217;DHT22;7711;46.634;14.318;2023-04-26T04:13:07;2.60;1.00
15217;DHT22;7711;46.634;14.318;2023-04-26T04:15:35;2.70;1.00
15217;DHT22;7711;46.634;14.318;2023-04-26T04:18:02;2.70;1.00
15217;DHT22;7711;46.634;14.318;2023-04-26T04:20:29;2.60;1.00
15217;DHT22;7711;46.634;14.318;2023-04-26T04:22:56;2.60;1.00
15217;DHT22;7711;46.634;14.318;2023-04-26T04:25:24;2.60;1.00
15217;DHT22;7711;46.634;14.318;2023-04-26T04:27:51;2.70;1.00
15217;DHT22;7711;46.634;14.318;2023-04-26T04:30:18;2.80;1.00
15217;DHT22;7711;46.634;14.318;2023-04-26T04:32:46;2.90;1.00
15217;DHT22;7711;46.634;14.318;2023-04-26T04:35:14;2.90;1.00
15217;DHT22;7711;46.634;14.318;2023-04-26T04:37:41;3.00;1.00
15217;DHT22;7711;46.634;14.318;2023-04-26T04:40:10;2.80;99.90
15217;DHT22;7711;46.634;14.318;2023-04-26T04:42:37;2.60;1.00
15217;DHT22;7711;46.634;14.318;2023-04-26T04:45:06;2.60;1.00
15217;DHT22;7711;46.634;14.318;2023-04-26T04:47:33;2.70;1.00
15217;DHT22;7711;46.634;14.318;2023-04-26T04:50:05;2.80;1.00
15217;DHT22;7711;46.634;14.318;2023-04-26T04:52:32;2.90;1.00
15217;DHT22;7711;46.634;14.318;2023-04-26T04:54:59;3.00;1.00
15217;DHT22;7711;46.634;14.318;2023-04-26T04:57:26;3.00;1.00
15217;DHT22;7711;46.634;14.318;2023-04-26T04:59:54;3.10;99.90
15217;DHT22;7711;46.634;14.318;2023-04-26T05:02:20;3.10;99.90
15217;DHT22;7711;46.634;14.318;2023-04-26T05:04:47;3.20;99.90
15217;DHT22;7711;46.634;14.318;2023-04-26T05:07:16;3.40;99.90
15217;DHT22;7711;46.634;14.318;2023-04-26T05:09:43;3.60;99.90
15217;DHT22;7711;46.634;14.318;2023-04-26T05:12:10;3.60;99.90
15217;DHT22;7711;46.634;14.318;2023-04-26T05:14:37;3.60;99.90
15217;DHT22;7711;46.634;14.318;2023-04-26T05:17:05;3.60;99.90
15217;DHT22;7711;46.634;14.318;2023-04-26T05:19:32;3.80;99.90
15217;DHT22;7711;46.634;14.318;2023-04-26T05:21:59;3.90;99.90
15217;DHT22;7711;46.634;14.318;2023-04-26T05:24:30;4.10;99.90
15217;DHT22;7711;46.634;14.318;2023-04-26T05:26:57;4.30;99.90
15217;DHT22;7711;46.634;14.318;2023-04-26T05:29:27;4.40;99.90
15217;DHT22;7711;46.634;14.318;2023-04-26T05:31:55;4.60;99.90
15217;DHT22;7711;46.634;14.318;2023-04-26T05:34:22;4.70;99.90
15217;DHT22;7711;46.634;14.318;2023-04-26T05:36:49;4.80;99.90
15217;DHT22;7711;46.634;14.318;2023-04-26T05:39:16;5.00;99.90
15217;DHT22;7711;46.634;14.318;2023-04-26T05:41:45;5.10;99.90
15217;DHT22;7711;46.634;14.318;2023-04-26T05:44:12;5.20;99.90
15217;DHT22;7711;46.634;14.318;2023-04-26T05:46:39;5.30;99.90
15217;DHT22;7711;46.634;14.318;2023-04-26T05:49:06;5.50;99.90
15217;DHT22;7711;46.634;14.318;2023-04-26T05:51:33;5.60;99.90
15217;DHT22;7711;46.634;14.318;2023-04-26T05:54:00;5.80;99.90
15217;DHT22;7711;46.634;14.318;2023-04-26T05:56:27;5.80;99.90
15217;DHT22;7711;46.634;14.318;2023-04-26T05:58:57;5.80;99.90
15217;DHT22;7711;46.634;14.318;2023-04-26T06:01:24;5.90;99.90
15217;DHT22;7711;46.634;14.318;2023-04-26T06:03:50;5.90;99.90
15217;DHT22;7711;46.634;14.318;2023-04-26T06:06:17;6.10;99.90
15217;DHT22;7711;46.634;14.318;2023-04-26T06:08:44;6.10;99.90
15217;DHT22;7711;46.634;14.318;2023-04-26T06:11:11;6.30;99.90
15217;DHT22;7711;46.634;14.318;2023-04-26T06:13:38;6.30;99.90
15217;DHT22;7711;46.634;14.318;2023-04-26T06:16:07;6.40;99.90
15217;DHT22;7711;46.634;14.318;2023-04-26T06:18:34;6.40;99.90
15217;DHT22;7711;46.634;14.318;2023-04-26T06:21:01;6.20;99.90
15217;DHT22;7711;46.634;14.318;2023-04-26T06:23:28;6.50;99.90
15217;DHT22;7711;46.634;14.318;2023-04-26T06:25:55;6.60;99.90
15217;DHT22;7711;46.634;14.318;2023-04-26T06:28:22;6.60;99.90
15217;DHT22;7711;46.634;14.318;2023-04-26T06:30:49;6.60;99.90
15217;DHT22;7711;46.634;14.318;2023-04-26T06:33:18;6.90;99.90
15217;DHT22;7711;46.634;14.318;2023-04-26T06:35:45;6.80;99.90
15217;DHT22;7711;46.634;14.318;2023-04-26T06:38:12;6.60;99.90
15217;DHT22;7711;46.634;14.318;2023-04-26T06:40:38;6.40;99.90
15217;DHT22;7711;46.634;14.318;2023-04-26T06:43:06;6.40;99.90
15217;DHT22;7711;46.634;14.318;2023-04-26T06:45:33;6.50;99.90
15217;DHT22;7711;46.634;14.318;2023-04-26T06:48:00;6.40;99.90
15217;DHT22;7711;46.634;14.318;2023-04-26T06:50:30;6.50;99.90
15217;DHT22;7711;46.634;14.318;2023-04-26T06:52:57;6.40;99.90
15217;DHT22;7711;46.634;14.318;2023-04-26T06:55:24;6.50;99.90
15217;DHT22;7711;46.634;14.318;2023-04-26T06:57:51;6.80;99.90
15217;DHT22;7711;46.634;14.318;2023-04-26T07:00:19;7.10;99.90
15217;DHT22;7711;46.634;14.318;2023-04-26T07:02:46;7.20;99.90
15217;DHT22;7711;46.634;14.318;2023-04-26T07:05:13;7.20;99.90
15217;DHT22;7711;46.634;14.318;2023-04-26T07:07:42;7.20;99.90
15217;DHT22;7711;46.634;14.318;2023-04-26T07:10:09;7.40;99.90
15217;DHT22;7711;46.634;14.318;2023-04-26T07:12:36;7.50;99.90
15217;DHT22;7711;46.634;14.318;2023-04-26T07:15:04;7.30;99.90
15217;DHT22;7711;46.634;14.318;2023-04-26T07:17:32;7.50;99.90
15217;DHT22;7711;46.634;14.318;2023-04-26T07:19:59;7.80;99.90
15217;DHT22;7711;46.634;14.318;2023-04-26T07:22:26;8.10;99.90
15217;DHT22;7711;46.634;14.318;2023-04-26T07:24:54;8.40;99.90
15217;DHT22;7711;46.634;14.318;2023-04-26T07:27:21;8.70;99.90
15217;DHT22;7711;46.634;14.318;2023-04-26T07:29:52;8.90;99.90
15217;DHT22;7711;46.634;14.318;2023-04-26T07:32:19;9.10;99.90
15217;DHT22;7711;46.634;14.318;2023-04-26T07:34:46;8.60;99.90
15217;DHT22;7711;46.634;14.318;2023-04-26T07:37:13;8.90;99.90
15217;DHT22;7711;46.634;14.318;2023-04-26T07:39:40;9.30;99.90
15217;DHT22;7711;46.634;14.318;2023-04-26T07:42:09;9.60;99.90
15217;DHT22;7711;46.634;14.318;2023-04-26T07:44:36;9.80;99.90
15217;DHT22;7711;46.634;14.318;2023-04-26T07:47:03;9.50;99.90
15217;DHT22;7711;46.634;14.318;2023-04-26T07:49:30;9.40;99.90
15217;DHT22;7711;46.634;14.318;2023-04-26T07:51:56;9.80;99.90
15217;DHT22;7711;46.634;14.318;2023-04-26T07:54:26;10.20;99.90
15217;DHT22;7711;46.634;14.318;2023-04-26T07:56:53;10.10;99.90
15217;DHT22;7711;46.634;14.318;2023-04-26T07:59:22;10.00;99.90
15217;DHT22;7711;46.634;14.318;2023-04-26T08:01:49;10.40;99.90
15217;DHT22;7711;46.634;14.318;2023-04-26T08:04:17;10.30;99.90
15217;DHT22;7711;46.634;14.318;2023-04-26T08:06:45;10.20;99.90
15217;DHT22;7711;46.634;14.318;2023-04-26T08:09:13;10.40;99.90
15217;DHT22;7711;46.634;14.318;2023-04-26T08:11:40;11.10;99.90
15217;DHT22;7711;46.634;14.318;2023-04-26T08:14:07;11.80;99.90
15217;DHT22;7711;46.634;14.318;2023-04-26T08:16:35;11.40;99.90
15217;DHT22;7711;46.634;14.318;2023-04-26T08:19:02;11.30;99.90
15217;DHT22;7711;46.634;14.318;2023-04-26T08:21:29;11.50;99.90
15217;DHT22;7711;46.634;14.318;2023-04-26T08:23:57;11.30;99.90
15217;DHT22;7711;46.634;14.318;2023-04-26T08:26:24;11.50;99.90
15217;DHT22;7711;46.634;14.318;2023-04-26T08:28:51;11.70;99.90
15217;DHT22;7711;46.634;14.318;2023-04-26T08:31:18;11.70;99.90
15217;DHT22;7711;46.634;14.318;2023-04-26T08:33:46;11.80;99.90
15217;DHT22;7711;46.634;14.318;2023-04-26T08:36:13;11.80;99.90
15217;DHT22;7711;46.634;14.318;2023-04-26T08:38:40;12.10;99.90
15217;DHT22;7711;46.634;14.318;2023-04-26T08:41:12;12.10;99.90
15217;DHT22;7711;46.634;14.318;2023-04-26T08:43:39;12.40;99.90
15217;DHT22;7711;46.634;14.318;2023-04-26T08:46:09;12.60;99.90
15217;DHT22;7711;46.634;14.318;2023-04-26T08:48:38;12.70;99.90
15217;DHT22;7711;46.634;14.318;2023-04-26T08:51:11;12.60;99.90
15217;DHT22;7711;46.634;14.318;2023-04-26T08:53:41;13.10;99.90
15217;DHT22;7711;46.634;14.318;2023-04-26T08:56:09;13.70;99.90
15217;DHT22;7711;46.634;14.318;2023-04-26T08:58:38;14.30;99.90
15217;DHT22;7711;46.634;14.318;2023-04-26T09:01:05;13.90;99.90
15217;DHT22;7711;46.634;14.318;2023-04-26T09:03:34;13.00;99.90
15217;DHT22;7711;46.634;14.318;2023-04-26T09:06:01;12.40;99.90
15217;DHT22;7711;46.634;14.318;2023-04-26T09:08:29;12.80;99.90
15217;DHT22;7711;46.634;14.318;2023-04-26T09:10:56;12.90;99.90
15217;DHT22;7711;46.634;14.318;2023-04-26T09:13:27;13.00;99.90
15217;DHT22;7711;46.634;14.318;2023-04-26T09:15:55;13.40;99.90
15217;DHT22;7711;46.634;14.318;2023-04-26T09:18:23;13.60;99.90
15217;DHT22;7711;46.634;14.318;2023-04-26T09:21:05;13.20;99.90
15217;DHT22;7711;46.634;14.318;2023-04-26T09:23:34;13.40;99.90
15217;DHT22;7711;46.634;14.318;2023-04-26T09:26:17;13.70;99.90
15217;DHT22;7711;46.634;14.318;2023-04-26T09:28:45;14.10;99.90
15217;DHT22;7711;46.634;14.318;2023-04-26T09:31:21;14.10;99.90
15217;DHT22;7711;46.634;14.318;2023-04-26T09:34:01;14.30;99.90
15217;DHT22;7711;46.634;14.318;2023-04-26T09:36:28;13.70;99.90
15217;DHT22;7711;46.634;14.318;2023-04-26T09:38:58;13.40;99.90
15217;DHT22;7711;46.634;14.318;2023-04-26T09:41:40;13.60;99.90
15217;DHT22;7711;46.634;14.318;2023-04-26T09:44:20;13.50;99.90
15217;DHT22;7711;46.634;14.318;2023-04-26T09:46:57;13.60;99.90
15217;DHT22;7711;46.634;14.318;2023-04-26T09:49:25;14.50;99.90
15217;DHT22;7711;46.634;14.318;2023-04-26T09:52:05;15.00;99.90
15217;DHT22;7711;46.634;14.318;2023-04-26T09:54:44;15.40;99.90
15217;DHT22;7711;46.634;14.318;2023-04-26T09:57:12;15.50;99.20
15217;DHT22;7711;46.634;14.318;2023-04-26T09:59:44;16.10;99.30
15217;DHT22;7711;46.634;14.318;2023-04-26T10:02:18;16.30;96.60
15217;DHT22;7711;46.634;14.318;2023-04-26T10:04:47;15.50;90.30
15217;DHT22;7711;46.634;14.318;2023-04-26T10:07:15;15.70;92.40
15217;DHT22;7711;46.634;14.318;2023-04-26T10:09:43;15.30;90.00
15217;DHT22;7711;46.634;14.318;2023-04-26T10:12:12;15.60;91.30
15217;DHT22;7711;46.634;14.318;2023-04-26T10:14:40;14.90;90.20
15217;DHT22;7711;46.634;14.318;2023-04-26T10:17:07;14.70;91.00
15217;DHT22;7711;46.634;14.318;2023-04-26T10:19:35;15.10;89.50
15217;DHT22;7711;46.634;14.318;2023-04-26T10:22:07;15.70;90.30
15217;DHT22;7711;46.634;14.318;2023-04-26T10:24:35;15.40;85.10
15217;DHT22;7711;46.634;14.318;2023-04-26T10:27:04;14.80;88.00
15217;DHT22;7711;46.634;14.318;2023-04-26T10:30:05;14.70;87.20
15217;DHT22;7711;46.634;14.318;2023-04-26T10:36:05;14.20;87.20
15217;DHT22;7711;46.634;14.318;2023-04-26T10:38:33;14.40;86.40
15217;DHT22;7711;46.634;14.318;2023-04-26T10:41:28;14.60;87.30
15217;DHT22;7711;46.634;14.318;2023-04-26T10:43:59;14.80;86.20
15217;DHT22;7711;46.634;14.318;2023-04-26T10:46:34;15.20;85.00
15217;DHT22;7711;46.634;14.318;2023-04-26T10:49:14;15.50;86.30
15217;DHT22;7711;46.634;14.318;2023-04-26T10:52:09;15.70;83.30
15217;DHT22;7711;46.634;14.318;2023-04-26T10:54:54;15.90;82.40
15217;DHT22;7711;46.634;14.318;2023-04-26T10:57:22;15.80;77.80
15217;DHT22;7711;46.634;14.318;2023-04-26T11:00:16;15.80;76.50
15217;DHT22;7711;46.634;14.318;2023-04-26T11:02:57;15.10;77.30
15217;DHT22;7711;46.634;14.318;2023-04-26T11:05:51;14.60;78.70
15217;DHT22;7711;46.634;14.318;2023-04-26T11:08:25;14.80;78.20
15217;DHT22;7711;46.634;14.318;2023-04-26T11:11:05;14.10;77.90
15217;DHT22;7711;46.634;14.318;2023-04-26T11:13:35;14.50;84.60
15217;DHT22;7711;46.634;14.318;2023-04-26T11:16:05;15.00;84.60
15217;DHT22;7711;46.634;14.318;2023-04-26T11:18:33;14.60;82.40
15217;DHT22;7711;46.634;14.318;2023-04-26T11:21:01;14.70;84.40
15217;DHT22;7711;46.634;14.318;2023-04-26T11:23:29;14.70;85.90
15217;DHT22;7711;46.634;14.318;2023-04-26T11:25:57;14.60;85.60
15217;DHT22;7711;46.634;14.318;2023-04-26T11:28:24;15.00;81.50
15217;DHT22;7711;46.634;14.318;2023-04-26T11:30:51;14.90;82.70
15217;DHT22;7711;46.634;14.318;2023-04-26T11:33:20;15.10;81.20
15217;DHT22;7711;46.634;14.318;2023-04-26T11:35:48;14.80;81.70
15217;DHT22;7711;46.634;14.318;2023-04-26T11:38:15;15.00;78.80
15217;DHT22;7711;46.634;14.318;2023-04-26T11:40:43;15.10;78.00
15217;DHT22;7711;46.634;14.318;2023-04-26T11:43:12;15.20;79.30
15217;DHT22;7711;46.634;14.318;2023-04-26T11:45:39;15.60;80.70
15217;DHT22;7711;46.634;14.318;2023-04-26T11:48:09;15.40;81.10
15217;DHT22;7711;46.634;14.318;2023-04-26T11:50:38;15.40;83.40
15217;DHT22;7711;46.634;14.318;2023-04-26T11:53:07;15.10;77.40
15217;DHT22;7711;46.634;14.318;2023-04-26T11:55:34;15.60;78.50
15217;DHT22;7711;46.634;14.318;2023-04-26T11:58:09;15.90;76.10
15217;DHT22;7711;46.634;14.318;2023-04-26T12:00:37;15.50;76.40
15217;DHT22;7711;46.634;14.318;2023-04-26T12:03:20;15.70;76.80
15217;DHT22;7711;46.634;14.318;2023-04-26T12:05:54;16.20;96.70
15217;DHT22;7711;46.634;14.318;2023-04-26T12:08:23;16.60;74.80
15217;DHT22;7711;46.634;14.318;2023-04-26T12:10:50;16.40;75.10
15217;DHT22;7711;46.634;14.318;2023-04-26T12:13:18;16.10;73.10
15217;DHT22;7711;46.634;14.318;2023-04-26T12:15:45;16.00;75.80
15217;DHT22;7711;46.634;14.318;2023-04-26T12:18:15;16.60;79.80
15217;DHT22;7711;46.634;14.318;2023-04-26T12:20:42;17.10;78.10
15217;DHT22;7711;46.634;14.318;2023-04-26T12:23:14;17.50;75.40
15217;DHT22;7711;46.634;14.318;2023-04-26T12:25:51;17.90;72.40
15217;DHT22;7711;46.634;14.318;2023-04-26T12:28:18;17.80;69.90
15217;DHT22;7711;46.634;14.318;2023-04-26T12:30:45;17.90;69.40
15217;DHT22;7711;46.634;14.318;2023-04-26T12:33:12;18.10;67.50
15217;DHT22;7711;46.634;14.318;2023-04-26T12:35:39;17.90;67.50
15217;DHT22;7711;46.634;14.318;2023-04-26T12:38:06;18.20;62.40
15217;DHT22;7711;46.634;14.318;2023-04-26T12:40:35;17.80;61.00
15217;DHT22;7711;46.634;14.318;2023-04-26T12:43:02;18.30;62.70
15217;DHT22;7711;46.634;14.318;2023-04-26T12:45:29;18.40;61.80
15217;DHT22;7711;46.634;14.318;2023-04-26T12:47:56;18.70;61.40
15217;DHT22;7711;46.634;14.318;2023-04-26T12:50:23;18.90;60.00
15217;DHT22;7711;46.634;14.318;2023-04-26T12:52:51;19.10;57.50
15217;DHT22;7711;46.634;14.318;2023-04-26T12:55:19;19.60;57.20
15217;DHT22;7711;46.634;14.318;2023-04-26T12:57:48;19.60;51.60
15217;DHT22;7711;46.634;14.318;2023-04-26T13:00:16;19.80;55.20
15217;DHT22;7711;46.634;14.318;2023-04-26T13:02:43;18.90;48.40
15217;DHT22;7711;46.634;14.318;2023-04-26T13:05:11;19.80;51.30
15217;DHT22;7711;46.634;14.318;2023-04-26T13:07:41;20.10;51.40
15217;DHT22;7711;46.634;14.318;2023-04-26T13:10:09;20.30;47.30
15217;DHT22;7711;46.634;14.318;2023-04-26T13:12:36;20.60;48.50
15217;DHT22;7711;46.634;14.318;2023-04-26T13:15:06;20.10;46.10
15217;DHT22;7711;46.634;14.318;2023-04-26T13:17:34;21.20;45.30
15217;DHT22;7711;46.634;14.318;2023-04-26T13:20:02;21.40;35.20
15217;DHT22;7711;46.634;14.318;2023-04-26T13:22:29;21.20;32.70
15217;DHT22;7711;46.634;14.318;2023-04-26T13:24:56;20.70;56.30
15217;DHT22;7711;46.634;14.318;2023-04-26T13:27:23;20.40;29.90
15217;DHT22;7711;46.634;14.318;2023-04-26T13:29:50;19.80;31.50
15217;DHT22;7711;46.634;14.318;2023-04-26T13:32:19;19.70;28.30
15217;DHT22;7711;46.634;14.318;2023-04-26T13:34:46;21.20;30.30
15217;DHT22;7711;46.634;14.318;2023-04-26T13:37:14;22.10;29.00
15217;DHT22;7711;46.634;14.318;2023-04-26T13:39:43;22.10;27.40
15217;DHT22;7711;46.634;14.318;2023-04-26T13:42:10;20.10;25.50
15217;DHT22;7711;46.634;14.318;2023-04-26T13:44:37;21.10;30.20
15217;DHT22;7711;46.634;14.318;2023-04-26T13:47:04;21.20;23.00
15217;DHT22;7711;46.634;14.318;2023-04-26T13:49:33;19.70;24.00
15217;DHT22;7711;46.634;14.318;2023-04-26T13:52:00;19.90;23.30
15217;DHT22;7711;46.634;14.318;2023-04-26T13:54:28;19.40;24.30
15217;DHT22;7711;46.634;14.318;2023-04-26T13:56:55;19.50;24.60
15217;DHT22;7711;46.634;14.318;2023-04-26T13:59:22;19.50;25.30
15217;DHT22;7711;46.634;14.318;2023-04-26T14:01:49;19.60;23.50
15217;DHT22;7711;46.634;14.318;2023-04-26T14:04:16;18.70;23.20
15217;DHT22;7711;46.634;14.318;2023-04-26T14:06:45;18.90;26.70
15217;DHT22;7711;46.634;14.318;2023-04-26T14:09:12;19.90;24.20
15217;DHT22;7711;46.634;14.318;2023-04-26T14:11:39;20.90;20.60
15217;DHT22;7711;46.634;14.318;2023-04-26T14:14:06;21.20;20.70
15217;DHT22;7711;46.634;14.318;2023-04-26T14:16:33;21.20;19.30
15217;DHT22;7711;46.634;14.318;2023-04-26T14:19:00;21.20;22.40
15217;DHT22;7711;46.634;14.318;2023-04-26T14:21:27;22.00;20.40
15217;DHT22;7711;46.634;14.318;2023-04-26T14:23:56;21.40;21.80
15217;DHT22;7711;46.634;14.318;2023-04-26T14:26:23;20.60;20.00
15217;DHT22;7711;46.634;14.318;2023-04-26T14:28:51;19.80;21.50
15217;DHT22;7711;46.634;14.318;2023-04-26T14:31:18;20.70;24.80
15217;DHT22;7711;46.634;14.318;2023-04-26T14:33:46;22.20;22.40
15217;DHT22;7711;46.634;14.318;2023-04-26T14:36:12;23.10;18.60
15217;DHT22;7711;46.634;14.318;2023-04-26T14:38:40;23.70;14.50
15217;DHT22;7711;46.634;14.318;2023-04-26T14:41:13;24.90;12.90
15217;DHT22;7711;46.634;14.318;2023-04-26T14:43:40;23.70;13.10
15217;DHT22;7711;46.634;14.318;2023-04-26T14:46:07;24.50;9.80
15217;DHT22;7711;46.634;14.318;2023-04-26T14:48:34;24.20;10.30
15217;DHT22;7711;46.634;14.318;2023-04-26T14:51:01;25.00;8.10
15217;DHT22;7711;46.634;14.318;2023-04-26T14:53:28;24.70;5.80
15217;DHT22;7711;46.634;14.318;2023-04-26T14:55:55;24.50;8.60
15217;DHT22;7711;46.634;14.318;2023-04-26T14:58:24;23.90;6.70
15217;DHT22;7711;46.634;14.318;2023-04-26T15:00:52;22.80;4.40
15217;DHT22;7711;46.634;14.318;2023-04-26T15:03:19;21.80;7.10
15217;DHT22;7711;46.634;14.318;2023-04-26T15:05:46;21.60;9.10
15217;DHT22;7711;46.634;14.318;2023-04-26T15:08:13;20.90;10.70
15217;DHT22;7711;46.634;14.318;2023-04-26T15:10:40;19.90;11.00
15217;DHT22;7711;46.634;14.318;2023-04-26T15:13:07;20.10;13.70
15217;DHT22;7711;46.634;14.318;2023-04-26T15:15:36;20.20;13.70
15217;DHT22;7711;46.634;14.318;2023-04-26T15:18:04;20.90;14.00
15217;DHT22;7711;46.634;14.318;2023-04-26T15:20:31;20.60;13.30
15217;DHT22;7711;46.634;14.318;2023-04-26T15:22:58;20.30;13.70
15217;DHT22;7711;46.634;14.318;2023-04-26T15:25:25;20.20;13.20
15217;DHT22;7711;46.634;14.318;2023-04-26T15:27:52;20.40;13.40
15217;DHT22;7711;46.634;14.318;2023-04-26T15:30:19;21.20;13.10
15217;DHT22;7711;46.634;14.318;2023-04-26T15:32:48;21.30;11.20
15217;DHT22;7711;46.634;14.318;2023-04-26T15:35:15;21.50;10.30
15217;DHT22;7711;46.634;14.318;2023-04-26T15:37:42;22.20;8.30
15217;DHT22;7711;46.634;14.318;2023-04-26T15:40:10;21.40;6.50
15217;DHT22;7711;46.634;14.318;2023-04-26T15:42:37;21.50;7.90
15217;DHT22;7711;46.634;14.318;2023-04-26T15:45:05;21.10;8.90
15217;DHT22;7711;46.634;14.318;2023-04-26T15:47:33;20.50;8.00
15217;DHT22;7711;46.634;14.318;2023-04-26T15:50:02;19.40;8.10
15217;DHT22;7711;46.634;14.318;2023-04-26T15:52:31;20.10;12.70
15217;DHT22;7711;46.634;14.318;2023-04-26T15:54:58;20.70;10.70
15217;DHT22;7711;46.634;14.318;2023-04-26T15:57:25;20.20;7.30
15217;DHT22;7711;46.634;14.318;2023-04-26T15:59:52;20.70;9.90
15217;DHT22;7711;46.634;14.318;2023-04-26T16:02:19;21.00;8.80
15217;DHT22;7711;46.634;14.318;2023-04-26T16:04:47;20.30;9.00
15217;DHT22;7711;46.634;14.318;2023-04-26T16:07:16;19.60;7.30
15217;DHT22;7711;46.634;14.318;2023-04-26T16:09:44;18.70;8.70